X  Fermer Données météorologiques d'aviation de Metar     EBBR Brussels Airport
Température
14°C Température
11°C Point de rosée
82% Humidité



Vitesse
27 KM/H
17 MPH
8 M/S
15 KTS



230°
SO
Conditions actuelles

Partiellement nuageux Partiellement nuageux
Pression 1016.92 (hPa) - 30.03 (inHg)
Visibilité 6.2 (mile) - 10 (km)
Aéroport
Code de l'aéroport EBBR

Emplacement: Brussels Airport
Distance: 14 (km)

Metar:
EBBR 300320Z 23015KT 9999 FEW015 SCT018 BKN022 14/11 Q1017 TEMPO BKN012

Temps: 10-30-2020 04:20 CET